Time;durP1;ratioP1;P1;durP2;ratioP2;P2;SDS_P1;SDS_P2;PMS_P1;PMS_P2;Temp;Humidity;BMP_temperature;BMP_pressure;BME280_temperature;BME280_humidity;BME280_pressure;Samples;Min_cycle;Max_cycle;Signal;HPM_P1;HPM_P2
2021/01/08 00:01:48;;;;;;;28.67;16.50;;;2.10;99.90;;;;;;5069789;28;20218;-74
2021/01/08 00:04:14;;;;;;;27.73;16.17;;;2.10;99.90;;;;;;5075625;28;20229;-75
2021/01/08 00:06:41;;;;;;;30.00;16.77;;;2.10;99.90;;;;;;5075064;28;20217;-77
2021/01/08 00:09:07;;;;;;;25.20;16.00;;;2.10;99.90;;;;;;5073622;28;20277;-75
2021/01/08 00:11:35;;;;;;;30.07;16.60;;;2.10;99.90;;;;;;5075917;28;20316;-75
2021/01/08 00:14:02;;;;;;;26.13;16.37;;;2.10;99.90;;;;;;5070845;28;20225;-76
2021/01/08 00:16:33;;;;;;;28.80;17.37;;;2.10;99.90;;;;;;5074006;28;20206;-74
2021/01/08 00:19:00;;;;;;;26.17;16.40;;;2.10;99.90;;;;;;5068923;28;20247;-76
2021/01/08 00:21:37;;;;;;;29.13;16.67;;;2.10;99.90;;;;;;5075155;28;20205;-75
2021/01/08 00:24:05;;;;;;;28.97;16.80;;;2.10;99.90;;;;;;5070310;28;20217;-76
2021/01/08 00:26:32;;;;;;;27.63;16.67;;;2.10;99.90;;;;;;5075057;28;20213;-75
2021/01/08 00:28:58;;;;;;;29.03;18.27;;;2.10;99.90;;;;;;5076294;28;20209;-78
2021/01/08 00:31:26;;;;;;;26.87;16.93;;;2.10;99.90;;;;;;5075992;28;20288;-77
2021/01/08 00:33:54;;;;;;;28.33;16.57;;;2.10;99.90;;;;;;5078734;28;20771;-78
2021/01/08 00:36:20;;;;;;;31.43;17.63;;;2.10;99.90;;;;;;5079219;28;20208;-77
2021/01/08 00:38:47;;;;;;;28.77;16.23;;;2.10;99.90;;;;;;5076618;28;20208;-77
2021/01/08 00:41:13;;;;;;;29.27;17.50;;;2.20;99.90;;;;;;5080275;28;20203;-77
2021/01/08 00:43:40;;;;;;;27.73;16.97;;;2.10;99.90;;;;;;5076312;28;20271;-77
2021/01/08 00:46:07;;;;;;;28.80;17.50;;;2.10;99.90;;;;;;5076887;28;20205;-77
2021/01/08 00:48:34;;;;;;;28.40;17.50;;;2.10;99.90;;;;;;5076454;28;20278;-77
2021/01/08 00:51:02;;;;;;;29.73;16.77;;;2.10;99.90;;;;;;5076434;28;20688;-76
2021/01/08 00:53:30;;;;;;;29.13;17.73;;;2.10;99.90;;;;;;5077975;28;20205;-77
2021/01/08 00:55:56;;;;;;;29.53;18.40;;;2.10;99.90;;;;;;5076908;28;20208;-77
2021/01/08 00:58:26;;;;;;;32.27;17.83;;;2.10;99.90;;;;;;5075847;28;20229;-77
2021/01/08 01:00:52;;;;;;;27.93;16.87;;;2.10;99.90;;;;;;5075080;28;20212;-76
2021/01/08 01:03:19;;;;;;;27.30;16.93;;;2.20;99.90;;;;;;5077332;28;20321;-76
2021/01/08 01:05:46;;;;;;;29.63;18.53;;;2.20;99.90;;;;;;5074246;28;20304;-76
2021/01/08 01:08:14;;;;;;;27.53;17.77;;;2.20;99.90;;;;;;5074455;28;20211;-76
2021/01/08 01:10:40;;;;;;;29.10;17.53;;;2.30;99.90;;;;;;5075702;28;20204;-78
2021/01/08 01:13:07;;;;;;;27.90;17.13;;;2.30;99.90;;;;;;5073245;28;20225;-77
2021/01/08 01:15:35;;;;;;;28.93;17.43;;;2.30;99.90;;;;;;5072977;28;20320;-76
2021/01/08 01:18:01;;;;;;;25.60;16.23;;;2.30;99.90;;;;;;5069316;28;20229;-76
2021/01/08 01:20:29;;;;;;;25.63;17.10;;;2.20;99.90;;;;;;5077648;28;20283;-78
2021/01/08 01:22:56;;;;;;;29.90;17.23;;;2.30;99.90;;;;;;5073900;28;20221;-77
2021/01/08 01:25:24;;;;;;;29.20;17.40;;;2.30;99.90;;;;;;5073960;28;20211;-77
2021/01/08 01:27:51;;;;;;;28.67;16.17;;;2.30;99.90;;;;;;5073587;28;20650;-76
2021/01/08 01:30:18;;;;;;;25.63;16.57;;;2.30;99.90;;;;;;5074803;28;20280;-76
2021/01/08 01:32:45;;;;;;;26.73;16.40;;;2.30;99.90;;;;;;5076806;28;20694;-76
2021/01/08 01:35:11;;;;;;;28.03;16.07;;;2.40;99.90;;;;;;5070799;28;20210;-76
2021/01/08 01:37:38;;;;;;;27.20;16.80;;;2.30;99.90;;;;;;5068020;28;20270;-76
2021/01/08 01:40:06;;;;;;;28.10;16.20;;;2.30;99.90;;;;;;5075731;28;20268;-75
2021/01/08 01:42:33;;;;;;;28.00;15.80;;;2.30;99.90;;;;;;5074875;28;20316;-76
2021/01/08 01:45:00;;;;;;;28.93;17.33;;;2.30;99.90;;;;;;5076068;28;20236;-76
2021/01/08 01:47:27;;;;;;;27.10;15.50;;;2.30;99.90;;;;;;5070059;28;20666;-76
2021/01/08 01:49:54;;;;;;;25.03;16.70;;;2.30;99.90;;;;;;5070336;28;20217;-76
2021/01/08 01:52:21;;;;;;;26.53;16.47;;;2.30;99.90;;;;;;5075300;28;20247;-77
2021/01/08 01:54:47;;;;;;;25.60;16.17;;;2.30;99.90;;;;;;5076726;28;20321;-77
2021/01/08 01:57:14;;;;;;;27.40;16.37;;;2.30;99.90;;;;;;5070003;28;20301;-76
2021/01/08 01:59:41;;;;;;;25.83;15.50;;;2.20;99.90;;;;;;5075468;28;20209;-76
2021/01/08 02:02:16;;;;;;;29.83;17.47;;;2.20;99.90;;;;;;5074588;28;20272;-78
2021/01/08 02:04:43;;;;;;;26.53;16.40;;;2.20;99.90;;;;;;5074984;28;20272;-79
2021/01/08 02:07:10;;;;;;;26.20;15.50;;;2.20;99.90;;;;;;5069957;28;20205;-77
2021/01/08 02:09:37;;;;;;;27.67;16.67;;;2.20;99.90;;;;;;5078598;28;20232;-79
2021/01/08 02:12:06;;;;;;;25.43;16.27;;;2.20;99.90;;;;;;5074270;28;20241;-79
2021/01/08 02:14:36;;;;;;;28.57;16.63;;;2.20;99.90;;;;;;5074499;28;20272;-79
2021/01/08 02:17:04;;;;;;;22.40;14.87;;;2.20;99.90;;;;;;5077926;28;20209;-78
2021/01/08 02:19:37;;;;;;;26.57;15.87;;;2.20;99.90;;;;;;5076715;28;20235;-79
2021/01/08 02:22:09;;;;;;;27.40;16.10;;;2.20;99.90;;;;;;5079809;28;20233;-79
2021/01/08 02:24:41;;;;;;;28.43;16.63;;;2.20;99.90;;;;;;5077070;28;20205;-79
2021/01/08 02:27:11;;;;;;;27.20;16.67;;;2.30;99.90;;;;;;5076453;28;20197;-80
2021/01/08 02:29:38;;;;;;;25.60;15.97;;;2.30;99.90;;;;;;5071556;28;20627;-79
2021/01/08 02:32:05;;;;;;;29.23;16.30;;;2.40;99.90;;;;;;5073992;28;20254;-79
2021/01/08 02:34:33;;;;;;;26.70;16.30;;;2.30;99.90;;;;;;5079358;28;20212;-79
2021/01/08 02:37:00;;;;;;;26.13;15.47;;;2.30;99.90;;;;;;5069920;28;20260;-78
2021/01/08 02:39:29;;;;;;;22.90;14.40;;;2.30;99.90;;;;;;5074825;28;20654;-79
2021/01/08 02:41:57;;;;;;;28.10;15.83;;;2.20;99.90;;;;;;5073043;28;20658;-80
2021/01/08 02:44:24;;;;;;;26.10;16.17;;;2.30;99.90;;;;;;5080204;28;20240;-80
2021/01/08 02:46:51;;;;;;;29.33;16.50;;;2.30;99.90;;;;;;5078648;28;20209;-79
2021/01/08 02:49:18;;;;;;;26.77;15.83;;;2.20;99.90;;;;;;5077813;28;20209;-79
2021/01/08 02:51:44;;;;;;;24.57;15.40;;;2.20;99.90;;;;;;5074879;28;20248;-79
2021/01/08 02:54:12;;;;;;;24.53;15.60;;;2.20;99.90;;;;;;5073284;28;20284;-78
2021/01/08 02:56:44;;;;;;;27.13;14.97;;;2.20;99.90;;;;;;5079830;28;20220;-79
2021/01/08 02:59:11;;;;;;;23.90;15.20;;;2.20;99.90;;;;;;5080116;28;20303;-78
2021/01/08 03:01:38;;;;;;;23.50;14.70;;;2.30;99.90;;;;;;5070644;28;20212;-77
2021/01/08 03:04:06;;;;;;;25.33;15.53;;;2.30;99.90;;;;;;5076660;28;20737;-78
2021/01/08 03:06:33;;;;;;;23.00;14.73;;;2.20;99.90;;;;;;5075817;28;20254;-77
2021/01/08 03:09:01;;;;;;;25.17;15.53;;;2.20;99.90;;;;;;5078674;28;20570;-76
2021/01/08 03:11:28;;;;;;;31.13;16.53;;;2.20;99.90;;;;;;5078130;28;20221;-77
2021/01/08 03:13:57;;;;;;;28.00;15.93;;;2.20;99.90;;;;;;5077762;28;20319;-77
2021/01/08 03:16:25;;;;;;;24.93;15.50;;;2.20;99.90;;;;;;5068170;28;20250;-78
2021/01/08 03:18:52;;;;;;;24.77;16.10;;;2.20;99.90;;;;;;5076037;28;20252;-78
2021/01/08 03:21:18;;;;;;;24.60;15.57;;;2.20;99.90;;;;;;5076536;28;20220;-78
2021/01/08 03:23:45;;;;;;;24.93;14.93;;;2.30;99.90;;;;;;5075724;28;20275;-78
2021/01/08 03:26:11;;;;;;;24.57;15.37;;;2.30;99.90;;;;;;5079572;28;20232;-78
2021/01/08 03:28:38;;;;;;;26.77;15.13;;;2.20;99.90;;;;;;5076808;28;20585;-79
2021/01/08 03:31:04;;;;;;;25.80;14.70;;;2.20;99.90;;;;;;5079743;28;20219;-77
2021/01/08 03:33:31;;;;;;;24.33;15.33;;;2.20;99.90;;;;;;5077687;28;20240;-77
2021/01/08 03:35:58;;;;;;;20.67;13.70;;;2.20;99.90;;;;;;5072255;28;20228;-75
2021/01/08 03:38:25;;;;;;;26.20;14.57;;;2.30;99.90;;;;;;5076230;28;20727;-76
2021/01/08 03:40:51;;;;;;;24.83;14.70;;;2.20;99.90;;;;;;5073944;28;20295;-76
2021/01/08 03:43:18;;;;;;;26.20;15.90;;;2.20;99.90;;;;;;5079515;28;20224;-77
2021/01/08 03:45:44;;;;;;;22.50;13.90;;;2.20;99.90;;;;;;5077387;28;20292;-76
2021/01/08 03:48:10;;;;;;;23.20;14.67;;;2.20;99.90;;;;;;5076304;28;20258;-76
2021/01/08 03:50:38;;;;;;;22.37;14.00;;;2.20;99.90;;;;;;5074831;28;20206;-76
2021/01/08 03:53:06;;;;;;;23.73;14.13;;;2.20;99.90;;;;;;5078685;28;20215;-77
2021/01/08 03:55:32;;;;;;;22.50;13.13;;;2.20;99.90;;;;;;5072954;28;20308;-77
2021/01/08 03:58:00;;;;;;;24.10;15.13;;;2.20;99.90;;;;;;5073760;28;20241;-77
2021/01/08 04:00:26;;;;;;;23.50;14.17;;;2.20;99.90;;;;;;5076728;28;20213;-77
2021/01/08 04:02:53;;;;;;;23.03;13.83;;;2.20;99.90;;;;;;5079303;28;20225;-78
2021/01/08 04:05:19;;;;;;;25.23;14.60;;;2.20;99.90;;;;;;5073123;28;20582;-78
2021/01/08 04:07:46;;;;;;;19.73;12.73;;;2.20;99.90;;;;;;5076068;28;20224;-77
2021/01/08 04:10:13;;;;;;;21.80;13.60;;;2.20;99.90;;;;;;5072094;28;20227;-77
2021/01/08 04:12:39;;;;;;;25.07;13.87;;;2.20;99.90;;;;;;5078530;28;20232;-76
2021/01/08 04:15:08;;;;;;;23.87;14.33;;;2.20;99.90;;;;;;5075455;28;20232;-75
2021/01/08 04:17:35;;;;;;;23.50;13.73;;;2.20;99.90;;;;;;5071491;28;20304;-75
2021/01/08 04:20:01;;;;;;;25.07;13.60;;;2.20;99.90;;;;;;5077447;28;20300;-77
2021/01/08 04:22:27;;;;;;;22.13;13.90;;;2.20;99.90;;;;;;5076728;28;20344;-78
2021/01/08 04:24:54;;;;;;;22.73;13.33;;;2.20;99.90;;;;;;5077663;28;20239;-77
2021/01/08 04:27:21;;;;;;;22.10;13.20;;;2.20;99.90;;;;;;5075367;28;20279;-77
2021/01/08 04:29:47;;;;;;;21.17;13.10;;;2.20;99.90;;;;;;5074758;28;20237;-78
2021/01/08 04:32:14;;;;;;;25.43;14.37;;;2.20;99.90;;;;;;5075710;28;20232;-77
2021/01/08 04:34:40;;;;;;;22.40;13.67;;;2.20;99.90;;;;;;5075884;28;20261;-77
2021/01/08 04:37:07;;;;;;;23.20;13.77;;;2.20;99.90;;;;;;5072728;28;20296;-77
2021/01/08 04:39:34;;;;;;;21.77;12.90;;;2.30;99.90;;;;;;5076102;28;20212;-79
2021/01/08 04:42:01;;;;;;;21.07;12.73;;;2.20;99.90;;;;;;5077652;28;20284;-78
2021/01/08 04:44:28;;;;;;;21.77;12.50;;;2.20;99.90;;;;;;5077092;28;20615;-79
2021/01/08 04:46:55;;;;;;;23.43;13.67;;;2.20;99.90;;;;;;5074763;28;20275;-78
2021/01/08 04:49:21;;;;;;;23.30;14.30;;;2.20;99.90;;;;;;5078389;28;20277;-78
2021/01/08 04:51:49;;;;;;;23.50;13.37;;;2.30;99.90;;;;;;5072997;28;20253;-78
2021/01/08 04:54:15;;;;;;;22.33;13.13;;;2.20;99.90;;;;;;5077122;28;20220;-78
2021/01/08 04:56:44;;;;;;;20.40;12.60;;;2.20;99.90;;;;;;5071515;28;20288;-77
2021/01/08 04:59:11;;;;;;;22.53;12.83;;;2.10;99.90;;;;;;5072024;28;20205;-77
2021/01/08 05:01:39;;;;;;;22.27;13.40;;;2.10;99.90;;;;;;5074427;28;20677;-77
2021/01/08 05:04:05;;;;;;;23.20;13.87;;;2.10;99.90;;;;;;5074648;28;20277;-76
2021/01/08 05:06:32;;;;;;;21.77;13.23;;;2.00;99.90;;;;;;5075338;28;20236;-77
2021/01/08 05:08:59;;;;;;;20.50;12.87;;;2.10;99.90;;;;;;5067074;28;20239;-77
2021/01/08 05:11:26;;;;;;;22.07;12.97;;;2.10;99.90;;;;;;5073983;28;20272;-77
2021/01/08 05:13:57;;;;;;;20.03;12.43;;;2.00;99.90;;;;;;5073749;28;20597;-76
2021/01/08 05:16:25;;;;;;;22.40;13.47;;;2.10;99.90;;;;;;5072118;28;20313;-76
2021/01/08 05:18:54;;;;;;;22.73;12.83;;;2.10;99.90;;;;;;5072244;28;20209;-76
2021/01/08 05:21:24;;;;;;;19.63;12.17;;;2.10;99.90;;;;;;5071759;28;20701;-75
2021/01/08 05:23:51;;;;;;;26.73;13.20;;;2.10;99.90;;;;;;5071109;28;20239;-75
2021/01/08 05:26:18;;;;;;;21.50;14.33;;;2.10;99.90;;;;;;5070589;28;20216;-76
2021/01/08 05:28:49;;;;;;;23.03;13.67;;;2.10;99.90;;;;;;5070373;28;20565;-76
2021/01/08 05:31:17;;;;;;;21.20;12.67;;;2.10;99.90;;;;;;5071545;28;20631;-77
2021/01/08 05:33:44;;;;;;;20.80;13.17;;;2.10;99.90;;;;;;5074909;28;20564;-77
2021/01/08 05:36:13;;;;;;;23.33;12.87;;;2.10;99.90;;;;;;5072373;28;20205;-77
2021/01/08 05:38:44;;;;;;;22.23;13.47;;;2.10;99.90;;;;;;5069551;28;20218;-77
2021/01/08 05:41:11;;;;;;;22.63;13.90;;;2.00;99.90;;;;;;5068808;28;20233;-76
2021/01/08 05:43:43;;;;;;;19.93;12.80;;;2.10;99.90;;;;;;5070097;28;20312;-77
2021/01/08 05:46:11;;;;;;;19.17;12.20;;;2.10;99.90;;;;;;5073845;28;20286;-77
2021/01/08 05:48:39;;;;;;;22.17;12.97;;;2.00;99.90;;;;;;5072394;28;20201;-78
2021/01/08 05:51:07;;;;;;;20.60;13.20;;;2.00;99.90;;;;;;5076388;28;20296;-77
2021/01/08 05:53:35;;;;;;;20.67;12.57;;;2.00;99.90;;;;;;5076987;28;20577;-78
2021/01/08 05:56:02;;;;;;;22.47;14.47;;;2.00;99.90;;;;;;5074504;28;20209;-77
2021/01/08 05:58:28;;;;;;;21.97;13.50;;;1.90;99.90;;;;;;5075434;28;20638;-78
2021/01/08 06:00:56;;;;;;;23.67;13.33;;;2.00;99.90;;;;;;5083456;28;20235;-79
2021/01/08 06:03:23;;;;;;;20.20;12.87;;;2.00;99.90;;;;;;5077792;28;20225;-77
2021/01/08 06:05:54;;;;;;;22.20;13.57;;;2.00;99.90;;;;;;5074236;28;20546;-77
2021/01/08 06:08:24;;;;;;;23.30;13.37;;;1.90;99.90;;;;;;5070203;28;20638;-79
2021/01/08 06:10:57;;;;;;;20.57;13.37;;;1.90;99.90;;;;;;5072696;28;20232;-78
2021/01/08 06:13:27;;;;;;;22.20;14.03;;;1.90;99.90;;;;;;5069389;28;20200;-75
2021/01/08 06:15:55;;;;;;;24.10;13.90;;;2.00;99.90;;;;;;5078682;28;20209;-76
2021/01/08 06:18:24;;;;;;;22.30;13.63;;;1.90;99.90;;;;;;5078460;28;20218;-76
2021/01/08 06:20:52;;;;;;;22.40;13.67;;;1.90;99.90;;;;;;5077667;28;20349;-75
2021/01/08 06:23:35;;;;;;;19.60;12.57;;;1.90;99.90;;;;;;5074558;28;20233;-76
2021/01/08 06:26:04;;;;;;;23.53;13.77;;;1.90;99.90;;;;;;5077553;28;20288;-76
2021/01/08 06:28:36;;;;;;;22.33;13.63;;;1.90;99.90;;;;;;5073924;28;20214;-76
2021/01/08 06:31:31;;;;;;;24.93;14.00;;;1.90;99.90;;;;;;5075089;28;20284;-76
2021/01/08 06:33:59;;;;;;;25.30;13.87;;;1.90;99.90;;;;;;5078533;28;20201;-76
2021/01/08 06:36:28;;;;;;;26.40;14.60;;;1.90;99.90;;;;;;5076928;28;20209;-76
2021/01/08 06:38:55;;;;;;;23.57;14.00;;;1.90;99.90;;;;;;5075820;28;20292;-76
2021/01/08 06:41:23;;;;;;;24.07;14.10;;;1.80;99.90;;;;;;5070286;28;20303;-75
2021/01/08 06:43:55;;;;;;;26.70;14.83;;;1.90;99.90;;;;;;5073715;28;20232;-76
2021/01/08 06:46:33;;;;;;;25.00;13.80;;;1.90;99.90;;;;;;5070184;28;20218;-76
2021/01/08 06:49:01;;;;;;;22.70;13.90;;;1.80;99.90;;;;;;5074697;28;20216;-76
2021/01/08 06:51:33;;;;;;;24.77;15.13;;;1.90;99.90;;;;;;5071140;28;20286;-77
2021/01/08 06:54:02;;;;;;;25.27;14.47;;;1.90;99.90;;;;;;5070698;28;20205;-75
2021/01/08 06:56:31;;;;;;;23.17;14.00;;;1.90;99.90;;;;;;5071693;28;20211;-76
2021/01/08 06:58:58;;;;;;;24.07;14.33;;;2.00;99.90;;;;;;5072038;28;20249;-77
2021/01/08 07:01:31;;;;;;;26.30;15.00;;;1.90;99.90;;;;;;5073424;28;20236;-77
2021/01/08 07:03:58;;;;;;;29.30;15.80;;;1.90;99.90;;;;;;5071719;28;20557;-76
2021/01/08 07:06:25;;;;;;;24.63;15.27;;;2.00;99.90;;;;;;5072643;28;20229;-76
2021/01/08 07:08:52;;;;;;;27.73;15.83;;;2.00;99.90;;;;;;5069656;28;20288;-77
2021/01/08 07:11:26;;;;;;;23.80;14.83;;;2.10;99.90;;;;;;5071052;28;20224;-75
2021/01/08 07:14:11;;;;;;;25.27;13.50;;;2.00;99.90;;;;;;5073548;28;20236;-76
2021/01/08 07:16:46;;;;;;;23.60;14.77;;;2.00;99.90;;;;;;5064621;28;20284;-76
2021/01/08 07:19:15;;;;;;;25.87;15.67;;;2.00;99.90;;;;;;5058598;28;20201;-76
2021/01/08 07:21:47;;;;;;;28.30;16.30;;;2.00;99.90;;;;;;5062696;28;20201;-76
2021/01/08 07:24:15;;;;;;;24.57;15.20;;;2.00;99.90;;;;;;5070263;28;20239;-75
2021/01/08 07:26:42;;;;;;;23.47;14.60;;;2.00;99.90;;;;;;5071750;28;20286;-75
2021/01/08 07:29:10;;;;;;;25.53;15.10;;;1.90;99.90;;;;;;5070186;28;20251;-76
2021/01/08 07:31:38;;;;;;;24.90;15.47;;;2.10;99.90;;;;;;5070300;28;20223;-76
2021/01/08 07:34:06;;;;;;;27.47;15.90;;;2.00;99.90;;;;;;5070197;28;20211;-76
2021/01/08 07:36:34;;;;;;;27.10;15.77;;;2.00;99.90;;;;;;5070805;28;20300;-77
2021/01/08 07:39:02;;;;;;;29.20;16.67;;;2.10;99.90;;;;;;5067032;28;20296;-75
2021/01/08 07:41:34;;;;;;;25.33;15.77;;;2.20;99.90;;;;;;5067892;28;20780;-77
2021/01/08 07:44:01;;;;;;;26.40;15.60;;;2.10;99.90;;;;;;5070317;28;20253;-75
2021/01/08 07:46:33;;;;;;;25.17;14.93;;;2.20;99.90;;;;;;5073089;28;20692;-77
2021/01/08 07:49:01;;;;;;;26.43;16.57;;;2.20;99.90;;;;;;5068275;28;20239;-74
2021/01/08 07:51:46;;;;;;;26.87;15.47;;;2.20;99.90;;;;;;5075598;28;20227;-73
2021/01/08 07:54:13;;;;;;;27.47;15.67;;;2.20;99.90;;;;;;5077011;28;20193;-73
2021/01/08 07:57:06;;;;;;;25.67;13.90;;;2.30;99.90;;;;;;5076594;28;20650;-75
2021/01/08 07:59:32;;;;;;;23.63;14.73;;;2.30;99.90;;;;;;5040860;28;20578;-76
2021/01/08 08:02:00;;;;;;;25.43;14.77;;;2.30;99.90;;;;;;5083026;28;20202;-75
2021/01/08 08:04:29;;;;;;;25.73;14.47;;;2.30;99.90;;;;;;5062586;28;20229;-73
2021/01/08 08:06:56;;;;;;;25.23;15.47;;;2.30;99.90;;;;;;5067009;28;20209;-75
2021/01/08 08:09:23;;;;;;;23.33;14.37;;;2.30;99.90;;;;;;5072114;28;20197;-73
2021/01/08 08:11:50;;;;;;;23.37;14.57;;;2.30;99.90;;;;;;5076089;28;20232;-74
2021/01/08 08:14:18;;;;;;;27.50;15.07;;;2.30;99.90;;;;;;5076599;28;20736;-73
2021/01/08 08:16:45;;;;;;;24.30;14.20;;;2.40;99.90;;;;;;5077589;28;20205;-75
2021/01/08 08:19:13;;;;;;;24.90;14.70;;;2.40;99.90;;;;;;5076096;28;20681;-73
2021/01/08 08:21:46;;;;;;;23.13;14.43;;;2.40;99.90;;;;;;5076067;28;20209;-72
2021/01/08 08:24:14;;;;;;;25.03;14.47;;;2.40;99.90;;;;;;5076087;28;20214;-74
2021/01/08 08:26:41;;;;;;;23.83;14.37;;;2.40;99.90;;;;;;5076027;28;20534;-74
2021/01/08 08:29:09;;;;;;;25.80;14.60;;;2.40;99.90;;;;;;5072245;28;20672;-74
2021/01/08 08:31:36;;;;;;;25.33;15.23;;;2.40;99.90;;;;;;5075452;28;20618;-74
2021/01/08 08:34:04;;;;;;;25.30;15.03;;;2.50;99.90;;;;;;5075947;28;20728;-73
2021/01/08 08:36:32;;;;;;;24.07;14.60;;;2.50;99.90;;;;;;5076125;28;20300;-74
2021/01/08 08:39:04;;;;;;;23.63;15.00;;;2.40;99.90;;;;;;5073183;28;20216;-78
2021/01/08 08:41:32;;;;;;;27.03;15.20;;;2.40;99.90;;;;;;5067845;28;20224;-75
2021/01/08 08:44:03;;;;;;;28.40;15.50;;;2.40;99.90;;;;;;5064337;28;20275;-77
2021/01/08 08:46:43;;;;;;;24.37;14.70;;;2.40;99.90;;;;;;5075227;28;20245;-76
2021/01/08 08:49:11;;;;;;;23.80;15.20;;;2.50;99.90;;;;;;5076129;28;20658;-75
2021/01/08 08:51:42;;;;;;;26.83;16.17;;;2.50;99.90;;;;;;5079669;28;20683;-75
2021/01/08 08:54:09;;;;;;;26.53;15.30;;;2.50;99.90;;;;;;5070666;28;20244;-75
2021/01/08 08:56:38;;;;;;;24.83;15.17;;;2.50;99.90;;;;;;5074450;28;20233;-75
2021/01/08 08:59:05;;;;;;;21.70;13.90;;;2.50;99.90;;;;;;5075818;28;20320;-75
2021/01/08 09:01:42;;;;;;;22.63;13.87;;;2.60;99.90;;;;;;5075614;28;20704;-77
2021/01/08 09:04:09;;;;;;;21.87;14.10;;;2.50;99.90;;;;;;5075596;28;20590;-77
2021/01/08 09:06:40;;;;;;;24.10;13.87;;;2.60;99.90;;;;;;5075988;28;20212;-76
2021/01/08 09:09:23;;;;;;;24.30;14.63;;;2.60;99.90;;;;;;5076516;28;20205;-76
2021/01/08 09:11:58;;;;;;;24.97;14.53;;;2.60;99.90;;;;;;5075535;28;20229;-75
2021/01/08 09:14:29;;;;;;;21.47;13.60;;;2.60;99.90;;;;;;5074939;28;20658;-75
2021/01/08 09:17:02;;;;;;;26.47;14.27;;;2.70;99.90;;;;;;5076011;28;20672;-77
2021/01/08 09:19:36;;;;;;;23.27;14.40;;;2.70;99.90;;;;;;5075928;28;20205;-78
2021/01/08 09:22:05;;;;;;;24.53;13.97;;;2.70;99.90;;;;;;5084036;28;20255;-78
2021/01/08 09:24:35;;;;;;;22.03;14.23;;;2.70;99.90;;;;;;5076319;28;20233;-78
2021/01/08 09:27:02;;;;;;;22.30;13.77;;;2.70;99.90;;;;;;5085972;28;20604;-76
2021/01/08 09:29:29;;;;;;;24.97;14.90;;;2.80;99.90;;;;;;5075527;28;20206;-77
2021/01/08 09:31:57;;;;;;;22.40;13.77;;;2.80;99.90;;;;;;5069849;28;20213;-77
2021/01/08 09:34:24;;;;;;;24.37;15.00;;;2.80;99.90;;;;;;5070883;28;20658;-76
2021/01/08 09:36:52;;;;;;;21.73;14.03;;;2.90;99.90;;;;;;5072219;28;20296;-75
2021/01/08 09:39:20;;;;;;;27.60;15.50;;;2.80;99.90;;;;;;5070823;28;20209;-78
2021/01/08 09:41:58;;;;;;;23.73;13.73;;;2.90;99.90;;;;;;5078284;28;20232;-78
2021/01/08 09:44:31;;;;;;;23.07;14.50;;;2.90;99.90;;;;;;5074045;28;20232;-78
2021/01/08 09:46:59;;;;;;;21.50;13.20;;;2.90;99.90;;;;;;5070810;28;20214;-78
2021/01/08 09:49:38;;;;;;;21.87;13.67;;;2.80;99.90;;;;;;5071998;28;20297;-78
2021/01/08 09:52:07;;;;;;;22.87;15.20;;;2.90;99.90;;;;;;5076569;28;20205;-77
2021/01/08 09:54:47;;;;;;;23.43;13.27;;;2.90;99.90;;;;;;5072322;28;20236;-77
2021/01/08 09:57:28;;;;;;;20.70;12.53;;;2.90;99.90;;;;;;5071661;28;20201;-77
2021/01/08 09:59:57;;;;;;;22.97;13.57;;;2.90;99.90;;;;;;5071898;28;20204;-77
2021/01/08 10:02:37;;;;;;;20.57;12.97;;;2.90;99.90;;;;;;5072245;28;20217;-77
2021/01/08 10:05:05;;;;;;;20.37;13.20;;;3.00;99.90;;;;;;5072036;28;20355;-78
2021/01/08 10:07:43;;;;;;;21.43;13.17;;;3.00;99.90;;;;;;5071973;28;20298;-78
2021/01/08 10:10:15;;;;;;;20.93;13.13;;;3.10;99.90;;;;;;5068242;28;20288;-76
2021/01/08 10:12:47;;;;;;;21.53;13.63;;;3.10;99.90;;;;;;5069508;28;20280;-73
2021/01/08 10:15:15;;;;;;;20.20;13.40;;;3.10;99.90;;;;;;5068547;28;20288;-77
2021/01/08 10:17:45;;;;;;;20.07;12.53;;;3.20;99.90;;;;;;5070975;28;20618;-76
2021/01/08 10:20:14;;;;;;;20.63;12.63;;;3.20;99.90;;;;;;5072515;28;20233;-75
2021/01/08 10:22:49;;;;;;;22.30;13.63;;;3.20;99.90;;;;;;5082363;28;20197;-75
2021/01/08 10:25:27;;;;;;;21.83;13.70;;;3.20;99.90;;;;;;5073947;28;20213;-75
2021/01/08 10:28:09;;;;;;;23.20;13.40;;;3.20;99.90;;;;;;5076783;28;20255;-75
2021/01/08 10:30:35;;;;;;;20.83;12.80;;;3.30;99.90;;;;;;5074316;28;20690;-76
2021/01/08 10:33:03;;;;;;;22.40;13.40;;;3.30;99.90;;;;;;5075312;28;20566;-76
2021/01/08 10:35:30;;;;;;;20.17;13.53;;;3.40;99.90;;;;;;5074938;28;20251;-76
2021/01/08 10:37:56;;;;;;;19.63;12.70;;;3.40;99.90;;;;;;5074540;28;20296;-76
2021/01/08 10:40:24;;;;;;;20.93;12.83;;;3.50;99.90;;;;;;5077022;28;20753;-76
2021/01/08 10:42:52;;;;;;;22.03;12.67;;;3.50;99.90;;;;;;5075270;28;20205;-76
2021/01/08 10:45:20;;;;;;;20.17;12.97;;;3.50;99.90;;;;;;5073196;28;20555;-76
2021/01/08 10:47:47;;;;;;;24.07;12.77;;;3.60;99.90;;;;;;5075640;28;20197;-77
2021/01/08 10:50:14;;;;;;;21.47;13.33;;;3.60;99.90;;;;;;5074692;28;20257;-75
2021/01/08 10:52:42;;;;;;;20.80;12.80;;;3.60;99.90;;;;;;5074969;28;20197;-76
2021/01/08 10:55:10;;;;;;;22.17;13.17;;;3.60;99.90;;;;;;5071294;28;20681;-76
2021/01/08 10:57:37;;;;;;;20.20;12.43;;;3.70;99.90;;;;;;5073227;28;20244;-75
2021/01/08 11:00:07;;;;;;;20.93;12.40;;;3.70;99.90;;;;;;5073740;28;20205;-74
2021/01/08 11:02:35;;;;;;;20.90;12.33;;;3.60;99.90;;;;;;5074086;28;20241;-77
2021/01/08 11:05:01;;;;;;;24.53;13.77;;;3.60;99.90;;;;;;5073184;28;20220;-77
2021/01/08 11:07:30;;;;;;;19.93;13.60;;;3.60;99.90;;;;;;5073746;28;20209;-77
2021/01/08 11:09:57;;;;;;;20.27;12.63;;;3.60;99.90;;;;;;5076765;28;20205;-78
2021/01/08 11:12:24;;;;;;;22.17;13.00;;;3.60;99.90;;;;;;5076939;28;20225;-78
2021/01/08 11:14:50;;;;;;;21.80;13.20;;;3.60;99.90;;;;;;5073261;28;20263;-78
2021/01/08 11:17:17;;;;;;;22.70;13.03;;;3.60;99.90;;;;;;5079562;28;20205;-77
2021/01/08 11:19:44;;;;;;;21.70;13.07;;;3.60;99.90;;;;;;5078471;28;20685;-76
2021/01/08 11:22:10;;;;;;;20.90;14.33;;;3.60;99.90;;;;;;5071704;28;20292;-76
2021/01/08 11:24:37;;;;;;;20.87;12.67;;;3.60;99.90;;;;;;5078786;28;20542;-74
2021/01/08 11:27:05;;;;;;;23.10;13.57;;;3.60;99.90;;;;;;5079205;28;20573;-76
2021/01/08 11:29:31;;;;;;;22.17;13.13;;;3.60;99.90;;;;;;5076448;28;20711;-77
2021/01/08 11:31:57;;;;;;;21.73;13.87;;;3.50;99.90;;;;;;5075867;28;20197;-76
2021/01/08 11:34:24;;;;;;;21.93;14.13;;;3.50;99.90;;;;;;5076697;28;20258;-77
2021/01/08 11:36:56;;;;;;;20.07;12.73;;;3.50;99.90;;;;;;5071706;28;20236;-77
2021/01/08 11:39:23;;;;;;;22.23;13.70;;;3.60;99.90;;;;;;5076021;28;20213;-76
2021/01/08 11:41:53;;;;;;;21.97;13.10;;;3.40;99.90;;;;;;5073878;28;20308;-77
2021/01/08 11:44:20;;;;;;;23.97;14.47;;;3.50;99.90;;;;;;5076937;28;20278;-75
2021/01/08 11:46:49;;;;;;;24.57;14.10;;;3.40;99.90;;;;;;5076131;28;20292;-76
2021/01/08 11:49:15;;;;;;;26.77;15.13;;;3.50;99.90;;;;;;5076192;28;20220;-74
2021/01/08 11:51:43;;;;;;;23.57;14.27;;;3.50;99.90;;;;;;5075574;28;20201;-76
2021/01/08 11:54:10;;;;;;;22.33;13.77;;;3.60;99.90;;;;;;5077323;28;20225;-76
2021/01/08 11:56:37;;;;;;;21.90;13.90;;;3.60;99.90;;;;;;5076979;28;20609;-76
2021/01/08 11:59:04;;;;;;;21.73;14.20;;;3.50;99.90;;;;;;5076627;28;20284;-75
2021/01/08 12:01:31;;;;;;;22.70;13.07;;;3.50;99.90;;;;;;5077016;28;20239;-72
2021/01/08 12:03:58;;;;;;;20.97;13.07;;;3.50;99.90;;;;;;5076052;28;20225;-74
2021/01/08 12:06:27;;;;;;;21.07;13.53;;;3.50;99.90;;;;;;5072887;28;20274;-73
2021/01/08 12:08:54;;;;;;;22.30;13.93;;;3.50;99.90;;;;;;5076615;28;20221;-73
2021/01/08 12:11:22;;;;;;;20.97;12.27;;;3.50;99.90;;;;;;5075673;28;20221;-72
2021/01/08 12:13:49;;;;;;;22.07;13.83;;;3.40;99.90;;;;;;5075312;28;20668;-74
2021/01/08 12:16:15;;;;;;;24.23;14.10;;;3.40;99.90;;;;;;5074592;28;20216;-72
2021/01/08 12:18:41;;;;;;;21.40;13.07;;;3.40;99.90;;;;;;5076199;28;20205;-73
2021/01/08 12:21:08;;;;;;;23.63;13.63;;;3.40;99.90;;;;;;5074140;28;20248;-70
2021/01/08 12:23:34;;;;;;;21.47;12.90;;;3.40;99.90;;;;;;5075245;28;20311;-75
2021/01/08 12:26:01;;;;;;;22.70;13.83;;;3.50;99.90;;;;;;5074963;28;20570;-74
2021/01/08 12:28:28;;;;;;;21.73;13.77;;;3.40;99.90;;;;;;5073769;28;20277;-72
2021/01/08 12:30:56;;;;;;;20.97;13.33;;;3.50;99.90;;;;;;5075610;28;20288;-76
2021/01/08 12:33:22;;;;;;;21.50;14.00;;;3.50;99.90;;;;;;5087033;28;20277;-77
2021/01/08 12:35:49;;;;;;;23.33;13.50;;;3.50;99.90;;;;;;5080464;28;20201;-76
2021/01/08 12:38:16;;;;;;;24.97;12.97;;;3.60;99.90;;;;;;5080026;28;20201;-75
2021/01/08 12:40:42;;;;;;;20.83;14.17;;;3.50;99.90;;;;;;5075948;28;20323;-76
2021/01/08 12:43:09;;;;;;;22.93;15.10;;;3.50;99.90;;;;;;5080532;28;20292;-74